Time;durP1;ratioP1;P1;durP2;ratioP2;P2;SDS_P1;SDS_P2;PMS_P1;PMS_P2;Temp;Humidity;BMP_temperature;BMP_pressure;BME280_temperature;BME280_humidity;BME280_pressure;Samples;Min_cycle;Max_cycle;Signal;HPM_P1;HPM_P2
2021/08/05 00:00:48;;;;;;;28.90;9.63;;;;;;;;;;5074265;28;20032;-71
2021/08/05 00:03:14;;;;;;;32.13;10.05;;;;;;;;;;5067579;28;20468;-74
2021/08/05 00:05:40;;;;;;;27.08;9.25;;;;;;;;;;5073775;28;20048;-71
2021/08/05 00:08:06;;;;;;;25.83;9.43;;;;;;;;;;5074609;28;20028;-71
2021/08/05 00:10:33;;;;;;;22.73;7.65;;;;;;;;;;5072459;28;20058;-71
2021/08/05 00:12:59;;;;;;;22.48;8.48;;;;;;;;;;5072695;28;20478;-71
2021/08/05 00:15:25;;;;;;;20.42;7.93;;;;;;;;;;5077452;28;20031;-71
2021/08/05 00:17:51;;;;;;;25.67;8.55;;;;;;;;;;5072276;28;20396;-71
2021/08/05 00:20:18;;;;;;;27.58;8.23;;;;;;;;;;5072048;28;20387;-71
2021/08/05 00:22:44;;;;;;;27.92;9.30;;;;;;;;;;5076012;28;20392;-71
2021/08/05 00:25:10;;;;;;;24.45;8.80;;;;;;;;;;5077018;28;20024;-71
2021/08/05 00:27:36;;;;;;;32.70;10.00;;;;;;;;;;5067782;28;20036;-71
2021/08/05 00:30:02;;;;;;;29.45;9.80;;;;;;;;;;5076218;28;20093;-71
2021/08/05 00:32:29;;;;;;;33.88;9.82;;;;;;;;;;5076841;28;20434;-71
2021/08/05 00:34:55;;;;;;;40.42;9.95;;;;;;;;;;5072121;28;20032;-72
2021/08/05 00:37:21;;;;;;;33.72;9.38;;;;;;;;;;5071166;28;20029;-71
2021/08/05 00:39:47;;;;;;;26.83;9.85;;;;;;;;;;5069992;28;20258;-71
2021/08/05 00:42:14;;;;;;;32.63;9.73;;;;;;;;;;5071762;28;20040;-71
2021/08/05 00:44:40;;;;;;;25.35;9.48;;;;;;;;;;5075367;28;20373;-71
2021/08/05 00:47:06;;;;;;;30.15;10.00;;;;;;;;;;5069257;28;20085;-71
2021/08/05 00:49:32;;;;;;;23.95;9.38;;;;;;;;;;5073052;28;20085;-71
2021/08/05 00:51:58;;;;;;;25.55;9.65;;;;;;;;;;5074333;28;20094;-71
2021/08/05 00:54:24;;;;;;;33.35;10.73;;;;;;;;;;5070838;28;20021;-71
2021/08/05 00:56:51;;;;;;;24.92;9.15;;;;;;;;;;5072783;28;20033;-71
2021/08/05 00:59:17;;;;;;;31.73;9.80;;;;;;;;;;5079943;28;20025;-71
2021/08/05 01:01:47;;;;;;;26.30;9.75;;;;;;;;;;5078259;28;20111;-71
2021/08/05 01:04:14;;;;;;;23.88;9.07;;;;;;;;;;5078642;28;20027;-71
2021/08/05 01:06:47;;;;;;;29.27;9.70;;;;;;;;;;5072825;28;20503;-71
2021/08/05 01:09:19;;;;;;;27.63;9.13;;;;;;;;;;5073708;28;20403;-71
2021/08/05 01:11:51;;;;;;;28.65;8.88;;;;;;;;;;5078246;28;20035;-71
2021/08/05 01:14:18;;;;;;;27.70;8.45;;;;;;;;;;5089193;28;20032;-71
2021/08/05 01:16:47;;;;;;;36.40;10.23;;;;;;;;;;5076174;28;20361;-72
2021/08/05 01:19:33;;;;;;;26.77;7.95;;;;;;;;;;5076178;28;20039;-71
2021/08/05 01:22:09;;;;;;;31.92;8.43;;;;;;;;;;5064185;28;20492;-71
2021/08/05 01:24:37;;;;;;;23.23;8.63;;;;;;;;;;5074338;28;20028;-71
2021/08/05 01:27:04;;;;;;;29.35;9.02;;;;;;;;;;5075953;28;20035;-74
2021/08/05 01:29:32;;;;;;;25.63;7.97;;;;;;;;;;5077714;28;20020;-71
2021/08/05 01:31:59;;;;;;;22.73;8.02;;;;;;;;;;5076225;28;20028;-71
2021/08/05 01:34:26;;;;;;;24.65;7.95;;;;;;;;;;5074477;28;20029;-71
2021/08/05 01:36:52;;;;;;;23.98;8.20;;;;;;;;;;5076031;28;20028;-75
2021/08/05 01:39:19;;;;;;;28.95;7.70;;;;;;;;;;5078080;28;20032;-71
2021/08/05 01:41:46;;;;;;;18.33;7.45;;;;;;;;;;5072974;28;20036;-71
2021/08/05 01:44:13;;;;;;;26.67;8.43;;;;;;;;;;5075556;28;20563;-71
2021/08/05 01:46:40;;;;;;;23.08;8.05;;;;;;;;;;5071135;28;20035;-71
2021/08/05 01:49:06;;;;;;;24.50;8.07;;;;;;;;;;5076761;28;20380;-71
2021/08/05 01:51:33;;;;;;;17.88;7.38;;;;;;;;;;5073883;28;20037;-71
2021/08/05 01:54:00;;;;;;;27.42;7.72;;;;;;;;;;5075399;28;20027;-71
2021/08/05 01:56:26;;;;;;;33.03;6.90;;;;;;;;;;5074171;28;20066;-71
2021/08/05 01:58:55;;;;;;;19.48;6.65;;;;;;;;;;5075929;28;20028;-71
2021/08/05 02:01:21;;;;;;;32.10;7.05;;;;;;;;;;5077139;28;20028;-71
2021/08/05 02:03:55;;;;;;;20.67;6.57;;;;;;;;;;5070977;28;20027;-71
2021/08/05 02:06:24;;;;;;;18.60;7.20;;;;;;;;;;5076504;28;20044;-71
2021/08/05 02:08:50;;;;;;;16.90;5.75;;;;;;;;;;5071535;28;20024;-71
2021/08/05 02:11:17;;;;;;;27.17;6.85;;;;;;;;;;5074587;28;20028;-71
2021/08/05 02:13:43;;;;;;;17.38;5.95;;;;;;;;;;5070616;28;20048;-71
2021/08/05 02:16:13;;;;;;;27.15;7.22;;;;;;;;;;5075344;28;20028;-71
2021/08/05 02:18:43;;;;;;;20.15;6.07;;;;;;;;;;5073261;28;20051;-71
2021/08/05 02:21:10;;;;;;;25.27;6.20;;;;;;;;;;5070562;28;20040;-71
2021/08/05 02:23:36;;;;;;;24.35;6.13;;;;;;;;;;5080765;28;20019;-71
2021/08/05 02:26:03;;;;;;;22.92;7.78;;;;;;;;;;5075348;28;20105;-71
2021/08/05 02:28:29;;;;;;;23.15;6.57;;;;;;;;;;5074234;28;20031;-71
2021/08/05 02:30:56;;;;;;;26.48;6.63;;;;;;;;;;5072532;28;20249;-72
2021/08/05 02:33:23;;;;;;;25.17;7.80;;;;;;;;;;5070501;28;20164;-71
2021/08/05 02:35:51;;;;;;;28.88;6.65;;;;;;;;;;5070102;28;20115;-71
2021/08/05 02:38:17;;;;;;;23.83;7.53;;;;;;;;;;5074235;28;20499;-71
2021/08/05 02:40:43;;;;;;;22.95;7.50;;;;;;;;;;5072577;28;20131;-71
2021/08/05 02:43:10;;;;;;;27.08;8.63;;;;;;;;;;5071560;28;20104;-71
2021/08/05 02:45:37;;;;;;;25.15;8.70;;;;;;;;;;5072507;28;20032;-71
2021/08/05 02:48:04;;;;;;;25.95;8.13;;;;;;;;;;5081203;28;20030;-71
2021/08/05 02:50:31;;;;;;;26.17;8.80;;;;;;;;;;5074335;28;20025;-71
2021/08/05 02:52:58;;;;;;;21.33;8.70;;;;;;;;;;5072512;28;20497;-71
2021/08/05 02:55:24;;;;;;;29.50;8.68;;;;;;;;;;5079060;28;20032;-75
2021/08/05 02:57:51;;;;;;;24.52;9.13;;;;;;;;;;5069684;28;20029;-71
2021/08/05 03:00:17;;;;;;;29.63;11.73;;;;;;;;;;5071796;28;20048;-71
2021/08/05 03:02:44;;;;;;;36.17;13.20;;;;;;;;;;5068092;28;20051;-71
2021/08/05 03:05:11;;;;;;;23.48;13.10;;;;;;;;;;5072388;28;20081;-71
2021/08/05 03:07:37;;;;;;;21.95;12.18;;;;;;;;;;5075459;28;20613;-71
2021/08/05 03:10:04;;;;;;;25.10;11.75;;;;;;;;;;5083216;28;20113;-71
2021/08/05 03:12:30;;;;;;;27.55;11.73;;;;;;;;;;5083636;28;20078;-71
2021/08/05 03:14:56;;;;;;;24.42;10.25;;;;;;;;;;5083565;28;20016;-71
2021/08/05 03:17:22;;;;;;;28.83;10.00;;;;;;;;;;5083057;28;20050;-72
2021/08/05 03:19:48;;;;;;;26.05;9.32;;;;;;;;;;5083245;28;20016;-71
2021/08/05 03:22:14;;;;;;;21.50;9.13;;;;;;;;;;5080980;28;20039;-72
2021/08/05 03:24:44;;;;;;;20.60;8.95;;;;;;;;;;5083128;28;20494;-71
2021/08/05 03:27:10;;;;;;;32.95;9.63;;;;;;;;;;5083473;28;20028;-71
2021/08/05 03:29:37;;;;;;;27.30;8.63;;;;;;;;;;5078592;28;20094;-71
2021/08/05 03:32:03;;;;;;;26.42;9.10;;;;;;;;;;5081061;28;20044;-71
2021/08/05 03:34:29;;;;;;;24.58;9.13;;;;;;;;;;5082892;28;20021;-71
2021/08/05 03:36:55;;;;;;;22.98;9.02;;;;;;;;;;5082730;28;20026;-72
2021/08/05 03:39:22;;;;;;;20.92;8.82;;;;;;;;;;5066710;28;20024;-71
2021/08/05 03:41:48;;;;;;;32.60;9.23;;;;;;;;;;5078717;28;20032;-71
2021/08/05 03:44:14;;;;;;;27.08;9.95;;;;;;;;;;5082585;28;20031;-71
2021/08/05 03:46:43;;;;;;;20.88;8.48;;;;;;;;;;5082930;28;20028;-72
2021/08/05 03:49:09;;;;;;;26.77;8.98;;;;;;;;;;5069375;28;20113;-71
2021/08/05 03:51:35;;;;;;;20.45;9.60;;;;;;;;;;5081327;28;20035;-71
2021/08/05 03:54:01;;;;;;;22.77;8.90;;;;;;;;;;5071280;28;20032;-71
2021/08/05 03:56:32;;;;;;;28.08;10.10;;;;;;;;;;5082728;28;20024;-71
2021/08/05 03:58:58;;;;;;;21.43;9.20;;;;;;;;;;5082441;28;20024;-71
2021/08/05 04:01:24;;;;;;;26.38;9.32;;;;;;;;;;5069538;28;20043;-71
2021/08/05 04:03:55;;;;;;;31.92;9.48;;;;;;;;;;5080996;28;20016;-72
2021/08/05 04:06:23;;;;;;;29.17;9.48;;;;;;;;;;5081994;28;20020;-71
2021/08/05 04:08:49;;;;;;;23.10;9.75;;;;;;;;;;5082501;28;20035;-71
2021/08/05 04:11:15;;;;;;;26.70;9.63;;;;;;;;;;5080507;28;20077;-71
2021/08/05 04:13:41;;;;;;;22.10;9.75;;;;;;;;;;5072579;28;20028;-73
2021/08/05 04:16:08;;;;;;;25.17;8.68;;;;;;;;;;5082312;28;20020;-71
2021/08/05 04:18:34;;;;;;;28.27;9.77;;;;;;;;;;5080669;28;20059;-71
2021/08/05 04:21:01;;;;;;;25.92;8.93;;;;;;;;;;5080885;28;20028;-72
2021/08/05 04:23:27;;;;;;;19.88;9.32;;;;;;;;;;5082214;28;20026;-71
2021/08/05 04:25:53;;;;;;;19.60;9.18;;;;;;;;;;5082253;28;20016;-72
2021/08/05 04:28:23;;;;;;;24.65;8.63;;;;;;;;;;5082199;28;20031;-72
2021/08/05 04:30:49;;;;;;;23.65;8.15;;;;;;;;;;5082129;28;20046;-73
2021/08/05 04:33:15;;;;;;;22.55;8.90;;;;;;;;;;5082088;28;20024;-71
2021/08/05 04:35:44;;;;;;;23.38;7.90;;;;;;;;;;5079672;28;20016;-71
2021/08/05 04:38:15;;;;;;;18.30;8.48;;;;;;;;;;5082123;28;20024;-71
2021/08/05 04:40:44;;;;;;;;;;;;;;;;;;5081769;28;20036;-72
2021/08/05 04:43:16;;;;;;;19.42;6.97;;;;;;;;;;5081173;28;20502;-71
2021/08/05 04:45:47;;;;;;;26.52;8.30;;;;;;;;;;5081192;28;20020;-72
2021/08/05 04:48:13;;;;;;;24.42;9.25;;;;;;;;;;5081858;28;20028;-71
2021/08/05 04:50:49;;;;;;;20.85;8.60;;;;;;;;;;5080089;28;20036;-71
2021/08/05 04:53:17;;;;;;;22.42;8.63;;;;;;;;;;5070107;28;20040;-72
2021/08/05 04:55:45;;;;;;;24.65;9.13;;;;;;;;;;5080175;28;20020;-71
2021/08/05 04:58:11;;;;;;;19.15;8.15;;;;;;;;;;5082075;28;20630;-71
2021/08/05 05:00:41;;;;;;;21.98;8.73;;;;;;;;;;5081236;28;20100;-71
2021/08/05 05:03:10;;;;;;;21.02;8.20;;;;;;;;;;5081695;28;20031;-71
2021/08/05 05:05:37;;;;;;;24.08;8.88;;;;;;;;;;5073180;28;20028;-71
2021/08/05 05:08:13;;;;;;;23.55;9.55;;;;;;;;;;5080168;28;20392;-71
2021/08/05 05:10:39;;;;;;;21.40;8.38;;;;;;;;;;5078702;28;20466;-71
2021/08/05 05:13:05;;;;;;;23.08;8.65;;;;;;;;;;5080520;28;20096;-71
2021/08/05 05:15:31;;;;;;;25.02;8.82;;;;;;;;;;5081947;28;20051;-71
2021/08/05 05:17:57;;;;;;;26.40;7.80;;;;;;;;;;5081144;28;20048;-72
2021/08/05 05:20:24;;;;;;;35.78;10.57;;;;;;;;;;5080201;28;20035;-71
2021/08/05 05:22:50;;;;;;;20.27;9.88;;;;;;;;;;5081254;28;20044;-71
2021/08/05 05:25:16;;;;;;;21.80;11.60;;;;;;;;;;5081481;28;20016;-71
2021/08/05 05:27:42;;;;;;;25.90;11.38;;;;;;;;;;5079824;28;20107;-71
2021/08/05 05:30:09;;;;;;;22.30;10.18;;;;;;;;;;5079907;28;20069;-75
2021/08/05 05:32:39;;;;;;;20.58;9.40;;;;;;;;;;5081668;28;20052;-71
2021/08/05 05:35:09;;;;;;;22.38;10.13;;;;;;;;;;5081585;28;20032;-72
2021/08/05 05:37:35;;;;;;;23.45;9.52;;;;;;;;;;5079994;28;20024;-72
2021/08/05 05:40:10;;;;;;;19.38;8.80;;;;;;;;;;5069681;28;20024;-74
2021/08/05 05:42:36;;;;;;;17.95;7.13;;;;;;;;;;5081368;28;20039;-74
2021/08/05 05:45:06;;;;;;;19.73;7.60;;;;;;;;;;5081080;28;20394;-71
2021/08/05 05:47:32;;;;;;;14.65;7.30;;;;;;;;;;5083386;28;20596;-71
2021/08/05 05:49:59;;;;;;;12.60;8.27;;;;;;;;;;5077315;28;20498;-71
2021/08/05 05:52:25;;;;;;;14.90;6.95;;;;;;;;;;5085161;28;20101;-71
2021/08/05 05:54:51;;;;;;;16.63;9.15;;;;;;;;;;5084725;28;20020;-71
2021/08/05 05:57:18;;;;;;;27.02;11.07;;;;;;;;;;5085537;28;20089;-72
2021/08/05 05:59:47;;;;;;;17.95;12.10;;;;;;;;;;5083864;28;20028;-71
2021/08/05 06:02:13;;;;;;;24.77;14.07;;;;;;;;;;5085259;28;20111;-72
2021/08/05 06:04:42;;;;;;;18.58;11.38;;;;;;;;;;5084742;28;20028;-71
2021/08/05 06:07:08;;;;;;;19.02;10.05;;;;;;;;;;5084950;28;20452;-72
2021/08/05 06:09:34;;;;;;;19.85;8.45;;;;;;;;;;5076847;28;20099;-71
2021/08/05 06:12:00;;;;;;;18.85;6.70;;;;;;;;;;5085077;28;20024;-71
2021/08/05 06:14:26;;;;;;;17.02;7.72;;;;;;;;;;5084250;28;20020;-71
2021/08/05 06:16:52;;;;;;;15.98;8.15;;;;;;;;;;5084606;28;20099;-71
2021/08/05 06:19:19;;;;;;;13.68;6.00;;;;;;;;;;5079670;28;20043;-71
2021/08/05 06:21:45;;;;;;;17.27;6.93;;;;;;;;;;5082782;28;20109;-72
2021/08/05 06:24:12;;;;;;;20.67;10.45;;;;;;;;;;5082750;28;20024;-71
2021/08/05 06:26:40;;;;;;;20.33;9.85;;;;;;;;;;5084241;28;20024;-71
2021/08/05 06:29:06;;;;;;;20.23;12.07;;;;;;;;;;5081094;28;20020;-71
2021/08/05 06:31:34;;;;;;;17.95;10.75;;;;;;;;;;5084176;28;20032;-71
2021/08/05 06:34:00;;;;;;;20.27;8.95;;;;;;;;;;5084179;28;20039;-71
2021/08/05 06:36:26;;;;;;;19.88;9.95;;;;;;;;;;5084163;28;20050;-71
2021/08/05 06:38:52;;;;;;;20.73;10.57;;;;;;;;;;5082432;28;20058;-71
2021/08/05 06:41:18;;;;;;;18.10;8.80;;;;;;;;;;5084396;28;20036;-72
2021/08/05 06:43:45;;;;;;;17.83;8.70;;;;;;;;;;5083522;28;20028;-71
2021/08/05 06:46:11;;;;;;;21.27;8.52;;;;;;;;;;5079250;28;20024;-71
2021/08/05 06:48:37;;;;;;;15.48;7.75;;;;;;;;;;5083992;28;20071;-71
2021/08/05 06:51:03;;;;;;;20.17;8.23;;;;;;;;;;5072099;28;20323;-71
2021/08/05 06:53:29;;;;;;;14.30;6.55;;;;;;;;;;5066485;28;20028;-71
2021/08/05 06:55:56;;;;;;;15.75;7.22;;;;;;;;;;5067587;28;20032;-71
2021/08/05 06:58:22;;;;;;;16.92;8.02;;;;;;;;;;5064182;28;20148;-72
2021/08/05 07:00:49;;;;;;;21.30;7.20;;;;;;;;;;5064529;28;20017;-71
2021/08/05 07:03:15;;;;;;;25.65;7.35;;;;;;;;;;5065436;28;20071;-72
2021/08/05 07:05:41;;;;;;;19.02;7.53;;;;;;;;;;5063657;28;20024;-72
2021/08/05 07:08:08;;;;;;;27.42;8.00;;;;;;;;;;5065542;28;20513;-72
2021/08/05 07:10:34;;;;;;;18.58;7.32;;;;;;;;;;5065817;28;20029;-71
2021/08/05 07:13:00;;;;;;;14.63;6.18;;;;;;;;;;5066443;28;20038;-71
2021/08/05 07:15:26;;;;;;;15.05;5.70;;;;;;;;;;5062706;28;20024;-72
2021/08/05 07:17:52;;;;;;;14.95;5.70;;;;;;;;;;5064098;28;20039;-71
2021/08/05 07:20:19;;;;;;;21.15;7.35;;;;;;;;;;5066175;28;20017;-72
2021/08/05 07:22:46;;;;;;;17.88;8.02;;;;;;;;;;5075808;28;20040;-71
2021/08/05 07:25:13;;;;;;;19.27;7.10;;;;;;;;;;5082055;28;20070;-71
2021/08/05 07:27:39;;;;;;;17.27;7.35;;;;;;;;;;5077890;28;20108;-71
2021/08/05 07:30:06;;;;;;;17.17;7.25;;;;;;;;;;5077348;28;20099;-71
2021/08/05 07:32:32;;;;;;;18.02;8.20;;;;;;;;;;5082058;28;20101;-72
2021/08/05 07:34:58;;;;;;;20.33;9.68;;;;;;;;;;5080818;28;20035;-71
2021/08/05 07:37:25;;;;;;;15.73;7.07;;;;;;;;;;5080603;28;20016;-71
2021/08/05 07:39:51;;;;;;;19.25;8.10;;;;;;;;;;5068442;28;20150;-71
2021/08/05 07:42:19;;;;;;;18.10;7.78;;;;;;;;;;5065641;28;20028;-72
2021/08/05 07:44:45;;;;;;;19.20;7.20;;;;;;;;;;5064937;28;20113;-71
2021/08/05 07:47:11;;;;;;;17.83;6.75;;;;;;;;;;5064309;28;20029;-72
2021/08/05 07:49:37;;;;;;;22.55;6.75;;;;;;;;;;5062585;28;20029;-71
2021/08/05 07:52:04;;;;;;;21.90;7.32;;;;;;;;;;5062642;28;20020;-71
2021/08/05 07:54:31;;;;;;;19.08;8.02;;;;;;;;;;5066029;28;20021;-71
2021/08/05 07:56:57;;;;;;;15.02;6.30;;;;;;;;;;5061527;28;20082;-71
2021/08/05 07:59:23;;;;;;;16.60;6.47;;;;;;;;;;5063854;28;20037;-72
2021/08/05 08:01:49;;;;;;;20.15;7.30;;;;;;;;;;5062897;28;20519;-71
2021/08/05 08:04:15;;;;;;;17.20;7.35;;;;;;;;;;5072600;28;20041;-71
2021/08/05 08:06:41;;;;;;;16.08;7.20;;;;;;;;;;5076868;28;20367;-72
2021/08/05 08:09:08;;;;;;;13.80;6.72;;;;;;;;;;5070013;28;20081;-71
2021/08/05 08:11:34;;;;;;;14.10;7.30;;;;;;;;;;5074763;28;20099;-72
2021/08/05 08:14:00;;;;;;;20.92;7.38;;;;;;;;;;5065694;28;20023;-72
2021/08/05 08:16:27;;;;;;;20.48;7.28;;;;;;;;;;5068718;28;20024;-75
2021/08/05 08:18:53;;;;;;;19.40;6.63;;;;;;;;;;5073348;28;20063;-73
2021/08/05 08:21:20;;;;;;;18.52;7.53;;;;;;;;;;5065365;28;20028;-71
2021/08/05 08:23:46;;;;;;;26.67;7.70;;;;;;;;;;5064037;28;20609;-71
2021/08/05 08:26:12;;;;;;;21.52;9.00;;;;;;;;;;5063913;28;20023;-74
2021/08/05 08:28:39;;;;;;;23.88;8.63;;;;;;;;;;5064382;28;20024;-73
2021/08/05 08:31:05;;;;;;;21.13;6.85;;;;;;;;;;5061416;28;20025;-72
2021/08/05 08:33:31;;;;;;;21.40;7.95;;;;;;;;;;5067635;28;20515;-72
2021/08/05 08:35:58;;;;;;;17.70;9.90;;;;;;;;;;5063943;28;20021;-71
2021/08/05 08:38:24;;;;;;;18.45;7.50;;;;;;;;;;5064569;28;20028;-71
2021/08/05 08:40:57;;;;;;;17.67;6.97;;;;;;;;;;5062209;28;20436;-71
2021/08/05 08:43:23;;;;;;;19.83;6.78;;;;;;;;;;5069773;28;20024;-70
2021/08/05 08:45:52;;;;;;;15.50;7.43;;;;;;;;;;5062787;28;20377;-73
2021/08/05 08:48:18;;;;;;;21.90;7.40;;;;;;;;;;5061788;28;20028;-71
2021/08/05 08:50:45;;;;;;;18.90;7.70;;;;;;;;;;5062860;28;20502;-70
2021/08/05 08:53:11;;;;;;;16.85;7.43;;;;;;;;;;5061735;28;20023;-74
2021/08/05 08:55:39;;;;;;;21.83;9.00;;;;;;;;;;5064023;28;20582;-74
2021/08/05 08:58:06;;;;;;;15.85;7.15;;;;;;;;;;5061412;28;20490;-71
2021/08/05 09:00:33;;;;;;;19.05;7.65;;;;;;;;;;5063095;28;20024;-71
2021/08/05 09:03:00;;;;;;;27.95;7.95;;;;;;;;;;5065687;28;20081;-71
2021/08/05 09:05:28;;;;;;;25.80;7.47;;;;;;;;;;5066576;28;20032;-71
2021/08/05 09:07:54;;;;;;;24.85;7.85;;;;;;;;;;5071585;28;20408;-71
2021/08/05 09:10:20;;;;;;;19.02;7.18;;;;;;;;;;5066712;28;20025;-72
2021/08/05 09:12:47;;;;;;;16.35;6.13;;;;;;;;;;5062042;28;20039;-71
2021/08/05 09:15:14;;;;;;;13.55;5.80;;;;;;;;;;5065977;28;20069;-71
2021/08/05 09:17:42;;;;;;;20.98;6.00;;;;;;;;;;5063043;28;20024;-71
2021/08/05 09:20:11;;;;;;;17.35;6.78;;;;;;;;;;5063564;28;20024;-71
2021/08/05 09:22:39;;;;;;;15.80;6.53;;;;;;;;;;5066765;28;20036;-71
2021/08/05 09:25:20;;;;;;;19.13;6.68;;;;;;;;;;5063224;28;20510;-71
2021/08/05 09:27:46;;;;;;;;;;;;;;;;;;5073133;28;20023;-71
2021/08/05 09:30:13;;;;;;;18.63;6.93;;;;;;;;;;5070911;28;19915;-71
2021/08/05 09:32:43;;;;;;;16.83;6.63;;;;;;;;;;5080570;28;20020;-71
2021/08/05 09:35:10;;;;;;;15.13;6.60;;;;;;;;;;5079080;28;20024;-73
2021/08/05 09:37:37;;;;;;;15.52;6.55;;;;;;;;;;5077150;28;20024;-71
2021/08/05 09:40:18;;;;;;;9.13;5.40;;;;;;;;;;5071618;28;20028;-72
2021/08/05 09:42:44;;;;;;;;;;;;;;;;;;5080892;28;20032;-72
2021/08/05 09:45:10;;;;;;;18.17;6.15;;;;;;;;;;5078379;28;20045;-72
2021/08/05 09:47:42;;;;;;;22.67;6.00;;;;;;;;;;5071628;28;20033;-72
2021/08/05 09:50:11;;;;;;;14.05;5.97;;;;;;;;;;5064981;28;20024;-72
2021/08/05 09:52:39;;;;;;;10.80;4.78;;;;;;;;;;5064853;28;20048;-72
2021/08/05 09:55:06;;;;;;;14.00;4.95;;;;;;;;;;5070735;28;20017;-71
2021/08/05 09:57:33;;;;;;;10.02;3.30;;;;;;;;;;5080600;28;20092;-72
2021/08/05 10:00:00;;;;;;;12.35;3.53;;;;;;;;;;5081978;28;20020;-71
2021/08/05 10:02:27;;;;;;;10.30;3.47;;;;;;;;;;5074782;28;20050;-72
2021/08/05 10:04:54;;;;;;;8.60;3.40;;;;;;;;;;5082599;28;20107;-72
2021/08/05 10:07:20;;;;;;;8.60;2.97;;;;;;;;;;5073137;28;20028;-71
2021/08/05 10:09:55;;;;;;;7.82;3.63;;;;;;;;;;5082333;28;20060;-71
2021/08/05 10:12:25;;;;;;;9.80;3.40;;;;;;;;;;5074748;28;20020;-71
2021/08/05 10:15:04;;;;;;;6.93;2.92;;;;;;;;;;5081231;28;20024;-72
2021/08/05 10:17:30;;;;;;;5.40;3.05;;;;;;;;;;5075567;28;20522;-71
2021/08/05 10:19:57;;;;;;;7.50;3.70;;;;;;;;;;5082081;28;20038;-71
2021/08/05 10:22:24;;;;;;;6.25;2.90;;;;;;;;;;5083734;28;20032;-71
2021/08/05 10:24:50;;;;;;;11.48;4.00;;;;;;;;;;5073705;28;20028;-71
2021/08/05 10:27:17;;;;;;;8.57;3.20;;;;;;;;;;5084588;28;20020;-71
2021/08/05 10:29:44;;;;;;;11.10;3.92;;;;;;;;;;5084123;28;20031;-72
2021/08/05 10:32:11;;;;;;;5.45;3.20;;;;;;;;;;5080546;28;20074;-71
2021/08/05 10:34:38;;;;;;;5.90;2.50;;;;;;;;;;5083972;28;20444;-72
2021/08/05 10:37:05;;;;;;;4.75;2.88;;;;;;;;;;5083071;28;20020;-72
2021/08/05 10:39:34;;;;;;;8.50;3.15;;;;;;;;;;5083366;28;20027;-71
2021/08/05 10:42:01;;;;;;;4.32;2.67;;;;;;;;;;5083790;28;20681;-71
2021/08/05 10:44:27;;;;;;;6.75;2.92;;;;;;;;;;5080061;28;20079;-72
2021/08/05 10:46:55;;;;;;;4.63;2.80;;;;;;;;;;5075418;28;20028;-71
2021/08/05 10:49:21;;;;;;;7.65;3.65;;;;;;;;;;5083121;28;20058;-72
2021/08/05 10:51:49;;;;;;;5.35;2.38;;;;;;;;;;5080898;28;20047;-72
2021/08/05 10:54:35;;;;;;;4.15;2.28;;;;;;;;;;5069615;28;20061;-71
2021/08/05 10:57:14;;;;;;;4.75;2.58;;;;;;;;;;5083176;28;20028;-72
2021/08/05 10:59:57;;;;;;;6.15;2.55;;;;;;;;;;5081760;28;20019;-71
2021/08/05 11:03:02;;;;;;;5.05;2.58;;;;;;;;;;5074761;28;20036;-70
2021/08/05 11:05:41;;;;;;;5.85;2.40;;;;;;;;;;4983445;28;20660;-69
2021/08/05 11:08:07;;;;;;;10.38;2.53;;;;;;;;;;4992852;28;20393;-71
2021/08/05 11:10:36;;;;;;;3.90;2.53;;;;;;;;;;5037078;28;20032;-71
2021/08/05 11:13:08;;;;;;;5.20;2.10;;;;;;;;;;5082087;28;20028;-73
2021/08/05 11:15:34;;;;;;;3.72;2.05;;;;;;;;;;5077491;28;20631;-71
2021/08/05 11:18:18;;;;;;;3.20;2.17;;;;;;;;;;5078952;28;20036;-70
2021/08/05 11:21:07;;;;;;;5.20;2.60;;;;;;;;;;5082600;28;20422;-70
2021/08/05 11:23:38;;;;;;;4.80;2.58;;;;;;;;;;5070658;28;20123;-71
2021/08/05 11:26:04;;;;;;;4.10;2.75;;;;;;;;;;5082986;28;20016;-71
2021/08/05 11:28:31;;;;;;;5.05;2.40;;;;;;;;;;5073742;28;20042;-73
2021/08/05 11:31:07;;;;;;;6.18;2.92;;;;;;;;;;5079658;28;20041;-72
2021/08/05 11:33:40;;;;;;;4.00;2.40;;;;;;;;;;5078892;28;20028;-71
2021/08/05 11:39:00;;;;;;;7.32;2.30;;;;;;;;;;5074536;28;20037;-70
2021/08/05 11:41:44;;;;;;;5.03;2.40;;;;;;;;;;5065369;28;20040;-71
2021/08/05 11:44:21;;;;;;;5.93;2.42;;;;;;;;;;5063246;28;20028;-72
2021/08/05 11:46:49;;;;;;;3.95;2.42;;;;;;;;;;5065894;28;20028;-72
2021/08/05 11:49:31;;;;;;;4.22;2.40;;;;;;;;;;5065604;28;20592;-71
2021/08/05 11:51:58;;;;;;;5.63;2.60;;;;;;;;;;5065965;28;20068;-71
2021/08/05 11:54:24;;;;;;;5.10;2.70;;;;;;;;;;5069452;28;20020;-71
2021/08/05 11:57:04;;;;;;;5.40;2.53;;;;;;;;;;5063490;28;20254;-73
2021/08/05 11:59:44;;;;;;;4.60;2.40;;;;;;;;;;5063450;28;20477;-73
2021/08/05 12:02:17;;;;;;;4.07;2.13;;;;;;;;;;5063656;28;20035;-72
2021/08/05 12:04:44;;;;;;;5.25;2.33;;;;;;;;;;5062384;28;20021;-71
2021/08/05 12:07:16;;;;;;;4.43;2.60;;;;;;;;;;5064309;28;20618;-72
2021/08/05 12:09:42;;;;;;;4.75;2.38;;;;;;;;;;5065445;28;20032;-72
2021/08/05 12:12:09;;;;;;;4.63;2.33;;;;;;;;;;5064223;28;20024;-71
2021/08/05 12:14:35;;;;;;;5.85;2.50;;;;;;;;;;5064192;28;20013;-71
2021/08/05 12:17:01;;;;;;;3.40;2.40;;;;;;;;;;5067329;28;20082;-72
2021/08/05 12:19:32;;;;;;;3.78;2.10;;;;;;;;;;5060901;28;20372;-71
2021/08/05 12:21:58;;;;;;;4.57;2.15;;;;;;;;;;5062751;28;20032;-70
2021/08/05 12:24:26;;;;;;;9.00;3.05;;;;;;;;;;5061480;28;20135;-71
2021/08/05 12:27:00;;;;;;;5.78;2.42;;;;;;;;;;5064249;28;20020;-73
2021/08/05 12:29:26;;;;;;;6.03;2.33;;;;;;;;;;5070782;28;20040;-71
2021/08/05 12:31:52;;;;;;;5.07;2.67;;;;;;;;;;5065406;28;20032;-71
2021/08/05 12:34:19;;;;;;;3.25;2.38;;;;;;;;;;5064802;28;20171;-71
2021/08/05 12:36:45;;;;;;;6.20;2.70;;;;;;;;;;5068075;28;20024;-71
2021/08/05 12:39:11;;;;;;;6.18;2.25;;;;;;;;;;5061035;28;20492;-71
2021/08/05 12:41:51;;;;;;;3.80;2.70;;;;;;;;;;5062793;28;20063;-72
2021/08/05 12:44:18;;;;;;;5.22;2.30;;;;;;;;;;5074138;28;20052;-71
2021/08/05 12:46:45;;;;;;;5.00;2.38;;;;;;;;;;5062715;28;20032;-70
2021/08/05 12:49:12;;;;;;;4.68;2.30;;;;;;;;;;5062672;28;20021;-70
2021/08/05 12:51:38;;;;;;;5.28;2.40;;;;;;;;;;5061325;28;20024;-71
2021/08/05 12:54:20;;;;;;;4.60;2.58;;;;;;;;;;5064084;28;20082;-71
2021/08/05 12:56:55;;;;;;;4.07;2.60;;;;;;;;;;5078914;28;20408;-72
2021/08/05 12:59:27;;;;;;;6.38;2.55;;;;;;;;;;5079291;28;20075;-71
2021/08/05 13:02:03;;;;;;;4.65;2.25;;;;;;;;;;5078613;28;20472;-71
2021/08/05 13:04:32;;;;;;;5.43;2.72;;;;;;;;;;5080897;28;20176;-71
2021/08/05 13:06:58;;;;;;;5.78;2.42;;;;;;;;;;5080979;28;20161;-70
2021/08/05 13:09:33;;;;;;;5.95;2.47;;;;;;;;;;5080632;28;20024;-73
2021/08/05 13:12:01;;;;;;;6.38;2.60;;;;;;;;;;5081384;28;20024;-71
2021/08/05 13:14:28;;;;;;;9.57;2.90;;;;;;;;;;5079842;28;20103;-70
2021/08/05 13:17:02;;;;;;;5.25;2.50;;;;;;;;;;5079674;28;20649;-71
2021/08/05 13:19:28;;;;;;;4.85;2.80;;;;;;;;;;5067694;28;20438;-71
2021/08/05 13:21:55;;;;;;;5.70;2.88;;;;;;;;;;5067900;28;20095;-69
2021/08/05 13:24:23;;;;;;;5.32;2.22;;;;;;;;;;5073430;28;20300;-70
2021/08/05 13:26:54;;;;;;;8.23;2.78;;;;;;;;;;5064630;28;20024;-72
2021/08/05 13:29:20;;;;;;;;;;;;;;;;;;5071377;28;20023;-70
2021/08/05 13:31:59;;;;;;;5.93;2.35;;;;;;;;;;5076293;28;19915;-72
2021/08/05 13:34:25;;;;;;;3.97;2.38;;;;;;;;;;5080662;28;20388;-69
2021/08/05 13:36:51;;;;;;;4.70;2.70;;;;;;;;;;5079171;28;20046;-72
2021/08/05 13:39:17;;;;;;;9.32;2.83;;;;;;;;;;5080958;28;20032;-70
2021/08/05 13:41:43;;;;;;;5.60;3.03;;;;;;;;;;5081006;28;20495;-71
2021/08/05 13:44:09;;;;;;;6.10;2.60;;;;;;;;;;5076911;28;20032;-70
2021/08/05 13:46:37;;;;;;;4.07;2.50;;;;;;;;;;5072655;28;20067;-70
2021/08/05 13:49:03;;;;;;;5.07;2.67;;;;;;;;;;5080306;28;20072;-71
2021/08/05 13:51:29;;;;;;;5.25;2.63;;;;;;;;;;5079887;28;20031;-70
2021/08/05 13:53:55;;;;;;;4.82;2.50;;;;;;;;;;5075887;28;20030;-70
2021/08/05 13:56:22;;;;;;;8.60;2.92;;;;;;;;;;5070859;28;20030;-72
2021/08/05 13:58:48;;;;;;;9.88;2.70;;;;;;;;;;5080874;28;20024;-70
2021/08/05 14:01:15;;;;;;;5.25;2.38;;;;;;;;;;5080067;28;20115;-70
2021/08/05 14:03:41;;;;;;;5.05;2.38;;;;;;;;;;5080843;28;20024;-70
2021/08/05 14:06:08;;;;;;;10.13;2.70;;;;;;;;;;5079381;28;20550;-70
2021/08/05 14:08:34;;;;;;;8.40;2.55;;;;;;;;;;5083897;28;20657;-70
2021/08/05 14:11:00;;;;;;;10.20;2.72;;;;;;;;;;5071980;28;20036;-70
2021/08/05 14:13:27;;;;;;;7.47;2.97;;;;;;;;;;5084000;28;20024;-70
2021/08/05 14:15:53;;;;;;;7.22;2.53;;;;;;;;;;5083047;28;20023;-70
2021/08/05 14:18:19;;;;;;;6.68;2.67;;;;;;;;;;5081967;28;20100;-69
2021/08/05 14:20:45;;;;;;;14.32;3.08;;;;;;;;;;5083897;28;20485;-72
2021/08/05 14:23:11;;;;;;;13.75;2.90;;;;;;;;;;5079707;28;20132;-72
2021/08/05 14:25:37;;;;;;;7.35;2.72;;;;;;;;;;5074937;28;20020;-71
2021/08/05 14:28:04;;;;;;;5.47;3.17;;;;;;;;;;5083326;28;20381;-73
2021/08/05 14:30:30;;;;;;;5.97;2.88;;;;;;;;;;5083625;28;20093;-72
2021/08/05 14:32:56;;;;;;;5.03;2.65;;;;;;;;;;5083866;28;20020;-72
2021/08/05 14:35:22;;;;;;;6.43;2.63;;;;;;;;;;5077234;28;20024;-72
2021/08/05 14:37:48;;;;;;;7.00;2.95;;;;;;;;;;5083850;28;20028;-72
2021/08/05 14:40:15;;;;;;;7.70;2.75;;;;;;;;;;5082371;28;20062;-72